Terminal Aerodrome Forecast
Issued by NWS

Home | Current Version | Previous Version | Text Only | Print | Product List | Glossary On
Versions: 1 2 3 4 5 6 7 8 9 10 11 12 13 14 15 16 17 18 19 20 21 22 23 24 25 26 27 28 29 30 31 32 33 34 35 36 37 38
000
FTUS43 KMKX 050902 AAA
TAFUES
TAF AMD
KUES 050902Z 0509/0606 25007KT P6SM OVC008
     FM051100 25006KT 5SM BR OVC010
     FM051500 21005KT P6SM OVC150
     FM052200 19009KT P6SM OVC120
     FM060500 17005KT P6SM OVC130=

USA.gov is the U.S. government's official web portal to all federal, state and local government web resources and services.